Walton Hills, Ohio
Current Conditions -  °F | °C
As of 3:53 AM on Saturday 25 Oct 2014 (Local Time) from KBKL Reporting Station
Scattered Clouds Scattered Clouds  
Wind Chill: 54°   Ceiling: Unl
Heat Index: 54°   Visibility: 10mi
Dew Point: 42°   Wind: 8mph
Humidity: 64%   Direction: 180°S
Pressure: 29.93"   Gusts: NA
Location:  41.3816°N, 81.5301°W
Report Text: KBKL 250753Z AUTO 18007KT 10SM FEW040 SCT050 12/06 A2993 RMK AO2 SLP134 T01220056
Loading
Personal Weather Stations






























Interactive Weather Map
Tropical Storm Tracking
New forecast layout! Learn more

10-Day Weather Forecast

Advertisements
Track Severe Weather on mobile